createdAt,value
2022-11-20T00:00:17.829Z,1.85
2022-11-20T00:02:44.417Z,1.78
2022-11-20T00:05:11.006Z,1.81
2022-11-20T00:07:37.614Z,1.82
2022-11-20T00:10:04.645Z,1.86
2022-11-20T00:12:31.213Z,1.89
2022-11-20T00:14:57.779Z,1.89
2022-11-20T00:17:24.369Z,1.91
2022-11-20T00:19:50.983Z,1.91
2022-11-20T00:22:17.528Z,1.92
2022-11-20T00:24:44.149Z,1.96
2022-11-20T00:27:10.805Z,1.87
2022-11-20T00:29:37.406Z,1.89
2022-11-20T00:32:04.061Z,1.86
2022-11-20T00:34:30.652Z,1.84
2022-11-20T00:36:57.215Z,1.86
2022-11-20T00:39:24.003Z,1.84
2022-11-20T00:41:51.257Z,1.81
2022-11-20T00:44:17.861Z,1.81
2022-11-20T00:46:44.394Z,1.74
2022-11-20T00:49:10.947Z,1.77
2022-11-20T00:51:37.557Z,1.78
2022-11-20T00:54:04.282Z,1.81
2022-11-20T00:56:30.799Z,1.84
2022-11-20T00:59:01.011Z,1.82
2022-11-20T01:01:30.105Z,1.82
2022-11-20T01:03:59.501Z,1.82
2022-11-20T01:06:34.274Z,1.83
2022-11-20T01:09:12.395Z,1.80
2022-11-20T01:11:42.471Z,1.77
2022-11-20T01:14:13.496Z,1.78
2022-11-20T01:16:46.363Z,1.80
2022-11-20T01:19:17.886Z,1.79
2022-11-20T01:21:46.913Z,1.73
2022-11-20T01:24:15.871Z,1.74
2022-11-20T01:26:44.618Z,1.68
2022-11-20T01:29:16.241Z,1.55
2022-11-20T01:31:43.481Z,1.45
2022-11-20T01:34:15.749Z,1.41
2022-11-20T01:36:43.707Z,1.41
2022-11-20T01:39:15.246Z,1.37
2022-11-20T01:42:05.696Z,1.31
2022-11-20T01:44:50.200Z,1.23
2022-11-20T01:47:41.918Z,1.32
2022-11-20T01:50:17.175Z,1.35
2022-11-20T01:52:49.186Z,1.39
2022-11-20T01:55:20.551Z,1.37
2022-11-20T01:57:49.542Z,1.41
2022-11-20T02:00:18.695Z,1.41
2022-11-20T02:02:51.958Z,1.40
2022-11-20T02:05:47.575Z,1.42
2022-11-20T02:08:14.861Z,1.41
2022-11-20T02:10:41.457Z,1.42
2022-11-20T02:13:27.918Z,1.39
2022-11-20T02:15:54.823Z,1.38
2022-11-20T02:18:22.442Z,1.41
2022-11-20T02:20:58.033Z,1.43
2022-11-20T02:23:44.764Z,1.44
2022-11-20T02:26:14.573Z,1.43
2022-11-20T02:28:41.447Z,1.45
2022-11-20T02:31:08.746Z,1.49
2022-11-20T02:33:35.350Z,1.49
2022-11-20T02:36:02.384Z,1.50
2022-11-20T02:38:29.163Z,1.48
2022-11-20T02:40:55.997Z,1.48
2022-11-20T02:43:23.603Z,1.49
2022-11-20T02:45:50.149Z,1.52
2022-11-20T02:48:16.809Z,1.53
2022-11-20T02:50:43.781Z,1.53
2022-11-20T02:53:10.450Z,1.58
2022-11-20T02:55:37.747Z,1.57
2022-11-20T02:58:04.317Z,1.58
2022-11-20T03:00:30.976Z,1.58
2022-11-20T03:02:57.623Z,1.60
2022-11-20T03:05:24.234Z,1.51
2022-11-20T03:07:50.876Z,1.44
2022-11-20T03:10:17.659Z,1.47
2022-11-20T03:12:44.252Z,1.50
2022-11-20T03:15:11.551Z,1.48
2022-11-20T03:17:38.210Z,1.47
2022-11-20T03:20:05.424Z,1.50
2022-11-20T03:22:32.032Z,1.51
2022-11-20T03:24:58.686Z,1.54
2022-11-20T03:27:25.298Z,1.54
2022-11-20T03:29:51.852Z,1.54
2022-11-20T03:32:18.418Z,1.54
2022-11-20T03:34:45.231Z,1.57
2022-11-20T03:37:11.813Z,1.60
2022-11-20T03:39:38.369Z,1.62
2022-11-20T03:42:24.928Z,1.62
2022-11-20T03:44:51.518Z,1.59
2022-11-20T03:47:18.082Z,1.59
2022-11-20T03:49:44.608Z,1.59
2022-11-20T03:52:11.166Z,1.60
2022-11-20T03:54:37.702Z,1.61
2022-11-20T03:57:04.329Z,1.62
2022-11-20T03:59:30.879Z,1.58
2022-11-20T04:01:57.478Z,1.60
2022-11-20T04:04:24.142Z,1.58
2022-11-20T04:06:50.694Z,1.58
2022-11-20T04:09:17.351Z,1.56
2022-11-20T04:11:43.966Z,1.54
2022-11-20T04:14:17.154Z,1.56
2022-11-20T04:16:44.435Z,1.55
2022-11-20T04:19:13.556Z,1.55
2022-11-20T04:21:40.082Z,1.55
2022-11-20T04:24:07.221Z,1.56
2022-11-20T04:26:34.242Z,1.58
2022-11-20T04:29:02.769Z,1.61
2022-11-20T04:31:32.021Z,1.57
2022-11-20T04:34:06.586Z,1.60
2022-11-20T04:36:33.486Z,1.60
2022-11-20T04:39:02.763Z,1.62
2022-11-20T04:41:32.069Z,1.63
2022-11-20T04:44:03.384Z,1.64
2022-11-20T04:46:35.615Z,1.66
2022-11-20T04:49:02.272Z,1.67
2022-11-20T04:51:28.891Z,1.67
2022-11-20T04:53:55.533Z,1.68
2022-11-20T04:56:22.112Z,1.69
2022-11-20T04:58:48.725Z,1.65
2022-11-20T05:01:25.602Z,1.65
2022-11-20T05:03:52.871Z,1.68
2022-11-20T05:06:22.135Z,1.70
2022-11-20T05:08:49.018Z,1.72
2022-11-20T05:11:18.742Z,1.68
2022-11-20T05:13:45.528Z,1.55
2022-11-20T05:16:15.465Z,1.48
2022-11-20T05:18:42.764Z,1.46
2022-11-20T05:21:10.736Z,1.35
2022-11-20T05:23:38.144Z,1.28
2022-11-20T05:26:06.506Z,1.23
2022-11-20T05:28:33.661Z,1.25
2022-11-20T05:31:11.762Z,1.24
2022-11-20T05:33:41.853Z,1.19
2022-11-20T05:36:09.145Z,1.15
2022-11-20T05:38:36.023Z,1.18
2022-11-20T05:41:05.840Z,1.17
2022-11-20T05:43:36.958Z,1.18
2022-11-20T05:46:04.640Z,1.19
2022-11-20T05:48:31.759Z,1.17
2022-11-20T05:50:59.719Z,1.18
2022-11-20T05:53:27.713Z,1.16
2022-11-20T05:56:02.524Z,1.19
2022-11-20T05:58:29.406Z,1.20
2022-11-20T06:01:03.796Z,1.23
2022-11-20T06:03:30.363Z,1.21
2022-11-20T06:05:56.911Z,1.23
2022-11-20T06:08:23.484Z,1.12
2022-11-20T06:10:50.074Z,1.06
2022-11-20T06:13:16.716Z,1.09
2022-11-20T06:15:43.254Z,1.14
2022-11-20T06:18:09.849Z,1.09
2022-11-20T06:20:41.807Z,1.13
2022-11-20T06:23:08.569Z,1.04
2022-11-20T06:25:39.243Z,1.09
2022-11-20T06:28:05.766Z,1.16
2022-11-20T06:30:32.520Z,1.20
2022-11-20T06:32:59.115Z,1.24
2022-11-20T06:35:25.674Z,1.29
2022-11-20T06:37:52.247Z,1.34
2022-11-20T06:40:18.774Z,1.37
2022-11-20T06:42:45.962Z,1.42
2022-11-20T06:45:12.615Z,1.45
2022-11-20T06:47:39.164Z,1.48
2022-11-20T06:50:06.105Z,1.52
2022-11-20T06:52:32.708Z,1.55
2022-11-20T06:54:59.292Z,1.58
2022-11-20T06:57:26.004Z,1.61
2022-11-20T06:59:52.542Z,1.63
2022-11-20T07:02:19.139Z,1.67
2022-11-20T07:04:45.784Z,1.69
2022-11-20T07:07:12.429Z,1.72
2022-11-20T07:09:39.006Z,1.73
2022-11-20T07:12:05.850Z,1.77
2022-11-20T07:14:32.407Z,1.83
2022-11-20T07:16:58.922Z,1.85
2022-11-20T07:19:25.467Z,1.85
2022-11-20T07:21:52.781Z,1.85
2022-11-20T07:24:19.310Z,1.85
2022-11-20T07:26:51.265Z,1.82
2022-11-20T07:29:17.890Z,1.85
2022-11-20T07:31:44.534Z,1.87
2022-11-20T07:34:11.214Z,1.89
2022-11-20T07:36:37.770Z,1.91
2022-11-20T07:39:04.524Z,1.97
2022-11-20T07:41:31.182Z,2.00
2022-11-20T07:43:57.801Z,2.04
2022-11-20T07:46:24.357Z,2.08
2022-11-20T07:48:51.051Z,2.12
2022-11-20T07:51:17.603Z,2.17
2022-11-20T07:53:44.194Z,2.23
2022-11-20T07:56:10.770Z,2.23
2022-11-20T07:58:37.520Z,2.28
2022-11-20T08:01:05.751Z,2.28
2022-11-20T08:03:32.427Z,2.33
2022-11-20T08:06:02.643Z,2.35
2022-11-20T08:08:33.533Z,2.37
2022-11-20T08:11:19.351Z,2.36
2022-11-20T08:14:04.237Z,2.42
2022-11-20T08:16:30.975Z,2.46
2022-11-20T08:18:57.529Z,2.51
2022-11-20T08:21:24.953Z,2.54
2022-11-20T08:23:51.876Z,2.57
2022-11-20T08:26:18.599Z,2.59
2022-11-20T08:28:45.439Z,2.57
2022-11-20T08:31:12.185Z,2.62
2022-11-20T08:33:38.807Z,2.64
2022-11-20T08:36:07.156Z,2.64
2022-11-20T08:38:34.020Z,2.65
2022-11-20T08:41:21.447Z,2.65
2022-11-20T08:43:48.242Z,2.67
2022-11-20T08:46:15.125Z,2.69
2022-11-20T08:48:41.769Z,2.72
2022-11-20T08:51:08.543Z,2.72
2022-11-20T08:53:35.244Z,2.72
2022-11-20T08:56:02.429Z,2.75
2022-11-20T08:58:29.005Z,2.81
2022-11-20T09:00:55.650Z,2.85
2022-11-20T09:03:22.379Z,2.89
2022-11-20T09:05:49.227Z,2.96
2022-11-20T09:08:16.042Z,3.02
2022-11-20T09:10:42.635Z,3.10
2022-11-20T09:13:09.220Z,3.14
2022-11-20T09:15:35.821Z,3.21
2022-11-20T09:18:05.397Z,3.26
2022-11-20T09:20:35.019Z,3.36
2022-11-20T09:23:01.559Z,3.38
2022-11-20T09:25:28.227Z,3.47
2022-11-20T09:27:59.050Z,3.47
2022-11-20T09:30:26.610Z,3.49
2022-11-20T09:32:53.297Z,3.48
2022-11-20T09:35:19.964Z,3.48
2022-11-20T09:37:46.756Z,3.51
2022-11-20T09:40:26.430Z,3.53
2022-11-20T09:43:11.534Z,3.55
2022-11-20T09:45:59.384Z,3.61
2022-11-20T09:48:54.900Z,3.65
2022-11-20T09:52:06.497Z,3.71
2022-11-20T09:54:39.335Z,3.71
2022-11-20T09:57:40.739Z,3.75
2022-11-20T10:00:14.688Z,3.73
2022-11-20T10:02:47.751Z,3.72
2022-11-20T10:05:26.795Z,3.71
2022-11-20T10:08:11.721Z,3.70
2022-11-20T10:11:09.582Z,3.69
2022-11-20T10:13:49.023Z,3.70
2022-11-20T10:16:42.588Z,3.72
2022-11-20T10:19:30.721Z,3.74
2022-11-20T10:22:25.365Z,3.84
2022-11-20T10:25:20.939Z,3.85
2022-11-20T10:27:53.562Z,3.88
2022-11-20T10:30:23.069Z,3.91
2022-11-20T10:33:14.254Z,3.90
2022-11-20T10:36:14.817Z,3.90
2022-11-20T10:38:50.612Z,3.90
2022-11-20T10:41:27.134Z,3.91
2022-11-20T10:44:05.847Z,3.90
2022-11-20T10:46:46.711Z,3.91
2022-11-20T10:49:17.058Z,3.93
2022-11-20T10:52:05.132Z,3.96
2022-11-20T10:54:47.581Z,3.98
2022-11-20T10:57:27.199Z,3.98
2022-11-20T11:00:23.113Z,4.03
2022-11-20T11:02:54.457Z,4.05
2022-11-20T11:05:46.213Z,4.06
2022-11-20T11:08:19.045Z,4.09
2022-11-20T11:10:57.152Z,4.07
2022-11-20T11:13:28.520Z,4.08
2022-11-20T11:15:55.566Z,4.09
2022-11-20T11:18:34.441Z,4.13
2022-11-20T11:21:04.261Z,4.15
2022-11-20T11:23:38.720Z,4.14
2022-11-20T11:26:08.279Z,4.17
2022-11-20T11:28:35.444Z,4.18
2022-11-20T11:31:02.076Z,4.21
2022-11-20T11:33:34.787Z,4.22
2022-11-20T11:36:04.892Z,4.26
2022-11-20T11:38:44.115Z,4.31
2022-11-20T11:41:17.428Z,4.38
2022-11-20T11:44:14.957Z,4.40
2022-11-20T11:46:46.731Z,4.46
2022-11-20T11:49:17.927Z,4.47
2022-11-20T11:52:01.107Z,4.48
2022-11-20T11:54:40.228Z,4.48
2022-11-20T11:57:32.503Z,4.41
2022-11-20T12:00:01.977Z,4.40
2022-11-20T12:03:03.807Z,4.36
2022-11-20T12:05:39.582Z,4.40
2022-11-20T12:08:18.417Z,4.38
2022-11-20T12:11:00.491Z,4.43
2022-11-20T12:13:45.929Z,4.43
2022-11-20T12:16:15.275Z,4.41
2022-11-20T12:18:43.412Z,4.41
2022-11-20T12:21:23.741Z,4.40
2022-11-20T12:23:53.146Z,4.41
2022-11-20T12:26:45.901Z,4.44
2022-11-20T12:29:30.922Z,4.43
2022-11-20T12:32:07.239Z,4.44
2022-11-20T12:34:33.764Z,4.48
2022-11-20T12:37:21.326Z,4.48
2022-11-20T12:39:53.319Z,4.49
2022-11-20T12:43:07.589Z,4.48
2022-11-20T12:45:36.783Z,4.47
2022-11-20T12:48:24.988Z,4.45
2022-11-20T12:51:22.610Z,4.39
2022-11-20T12:54:04.298Z,4.37
2022-11-20T12:56:40.354Z,4.38
2022-11-20T12:59:25.867Z,4.40
2022-11-20T13:02:14.414Z,4.38
2022-11-20T13:04:58.692Z,4.40
2022-11-20T13:07:28.338Z,4.36
2022-11-20T13:09:55.825Z,4.36
2022-11-20T13:12:35.416Z,4.33
2022-11-20T13:15:36.036Z,4.31
2022-11-20T13:18:05.000Z,4.28
2022-11-20T13:20:34.579Z,4.24
2022-11-20T13:23:01.126Z,4.24
2022-11-20T13:25:32.879Z,4.22
2022-11-20T13:28:10.811Z,4.20
2022-11-20T13:30:49.530Z,4.15
2022-11-20T13:33:36.616Z,4.15
2022-11-20T13:36:06.591Z,4.11
2022-11-20T13:38:49.279Z,4.10
2022-11-20T13:41:32.308Z,4.11
2022-11-20T13:44:25.008Z,4.12
2022-11-20T13:46:51.945Z,4.12
2022-11-20T13:49:24.418Z,4.12
2022-11-20T13:51:55.336Z,4.10
2022-11-20T13:54:39.904Z,4.12
2022-11-20T13:57:27.888Z,4.11
2022-11-20T14:00:15.782Z,4.08
2022-11-20T14:02:43.833Z,4.07
2022-11-20T14:05:23.031Z,4.05
2022-11-20T14:07:51.536Z,4.05
2022-11-20T14:10:32.022Z,4.05
2022-11-20T14:12:59.661Z,4.03
2022-11-20T14:15:26.207Z,4.01
2022-11-20T14:17:52.921Z,3.99
2022-11-20T14:20:24.169Z,3.99
2022-11-20T14:22:54.295Z,3.98
2022-11-20T14:25:24.347Z,3.97
2022-11-20T14:28:02.263Z,3.96
2022-11-20T14:30:49.816Z,3.94
2022-11-20T14:33:17.235Z,3.92
2022-11-20T14:35:49.160Z,3.90
2022-11-20T14:38:19.664Z,3.89
2022-11-20T14:40:46.415Z,3.88
2022-11-20T14:43:25.844Z,3.87
2022-11-20T14:46:04.878Z,3.85
2022-11-20T14:48:36.458Z,3.83
2022-11-20T14:51:03.256Z,3.82
2022-11-20T14:53:29.907Z,3.80
2022-11-20T14:56:02.189Z,3.78
2022-11-20T14:58:32.378Z,3.76
2022-11-20T15:01:07.079Z,3.77
2022-11-20T15:03:39.432Z,3.76
2022-11-20T15:06:08.929Z,3.72
2022-11-20T15:08:36.008Z,3.73
2022-11-20T15:11:03.143Z,3.68
2022-11-20T15:13:38.649Z,3.68
2022-11-20T15:16:14.753Z,3.69
2022-11-20T15:18:45.585Z,3.65
2022-11-20T15:21:17.797Z,3.65
2022-11-20T15:23:44.689Z,3.64
2022-11-20T15:26:19.535Z,3.61
2022-11-20T15:28:48.778Z,3.60
2022-11-20T15:31:18.082Z,3.61
2022-11-20T15:33:44.709Z,3.60
2022-11-20T15:36:11.663Z,3.58
2022-11-20T15:38:38.447Z,3.58
2022-11-20T15:41:05.478Z,3.56
2022-11-20T15:43:32.180Z,3.56
2022-11-20T15:46:06.166Z,3.55
2022-11-20T15:48:49.686Z,3.54
2022-11-20T15:51:36.179Z,3.54
2022-11-20T15:54:11.702Z,3.55
2022-11-20T15:56:38.659Z,3.54
2022-11-20T15:59:05.443Z,3.54
2022-11-20T16:01:32.370Z,3.51
2022-11-20T16:03:58.978Z,3.51
2022-11-20T16:06:25.603Z,3.52
2022-11-20T16:08:52.188Z,3.51
2022-11-20T16:11:19.399Z,3.50
2022-11-20T16:14:04.511Z,3.53
2022-11-20T16:16:34.635Z,3.51
2022-11-20T16:19:01.292Z,3.53
2022-11-20T16:21:32.330Z,3.54
2022-11-20T16:24:05.162Z,3.52
2022-11-20T16:26:32.373Z,3.52
2022-11-20T16:29:03.735Z,3.54
2022-11-20T16:31:30.840Z,3.52
2022-11-20T16:33:59.534Z,3.53
2022-11-20T16:36:32.298Z,3.54
2022-11-20T16:39:01.416Z,3.54
2022-11-20T16:41:30.950Z,3.54
2022-11-20T16:43:59.314Z,3.54
2022-11-20T16:46:28.095Z,3.55
2022-11-20T16:48:55.823Z,3.54
2022-11-20T16:51:24.184Z,3.56
2022-11-20T16:53:51.486Z,3.56
2022-11-20T16:56:20.391Z,3.56
2022-11-20T16:58:49.762Z,3.55
2022-11-20T17:01:21.301Z,3.55
2022-11-20T17:03:55.492Z,3.55
2022-11-20T17:06:25.008Z,3.54
2022-11-20T17:08:51.747Z,3.54
2022-11-20T17:11:19.879Z,3.56
2022-11-20T17:13:47.331Z,3.53
2022-11-20T17:16:16.835Z,3.54
2022-11-20T17:18:44.485Z,3.52
2022-11-20T17:21:12.006Z,3.52
2022-11-20T17:23:41.359Z,3.49
2022-11-20T17:26:17.768Z,3.51
2022-11-20T17:28:46.302Z,3.52
2022-11-20T17:31:15.792Z,3.51
2022-11-20T17:33:44.308Z,3.51
2022-11-20T17:36:12.738Z,3.49
2022-11-20T17:38:39.318Z,3.49
2022-11-20T17:41:08.637Z,3.52
2022-11-20T17:43:39.081Z,3.54
2022-11-20T17:46:17.812Z,3.57
2022-11-20T17:48:45.915Z,3.55
2022-11-20T17:51:23.776Z,3.59
2022-11-20T17:53:52.829Z,3.63
2022-11-20T17:56:38.547Z,3.63
2022-11-20T17:59:07.050Z,3.64
2022-11-20T18:01:34.175Z,3.63
2022-11-20T18:04:01.250Z,3.67
2022-11-20T18:06:29.121Z,3.62
2022-11-20T18:08:57.972Z,3.61
2022-11-20T18:11:27.067Z,3.61
2022-11-20T18:14:15.886Z,3.64
2022-11-20T18:16:48.151Z,3.63
2022-11-20T18:19:17.728Z,3.64
2022-11-20T18:21:44.383Z,3.65
2022-11-20T18:24:11.487Z,3.67
2022-11-20T18:26:43.910Z,3.66
2022-11-20T18:29:12.441Z,3.64
2022-11-20T18:31:39.597Z,3.67
2022-11-20T18:34:11.481Z,3.62
2022-11-20T18:36:38.946Z,3.63
2022-11-20T18:39:05.916Z,3.64
2022-11-20T18:41:51.468Z,3.63
2022-11-20T18:44:37.887Z,3.64
2022-11-20T18:47:13.750Z,3.63
2022-11-20T18:49:42.390Z,3.63
2022-11-20T18:52:09.030Z,3.62
2022-11-20T18:54:36.941Z,3.62
2022-11-20T18:57:05.260Z,3.61
2022-11-20T18:59:32.285Z,3.59
2022-11-20T19:01:59.001Z,3.58
2022-11-20T19:04:25.895Z,3.56
2022-11-20T19:06:56.156Z,3.56
2022-11-20T19:09:23.630Z,3.53
2022-11-20T19:11:50.849Z,3.49
2022-11-20T19:14:17.793Z,3.45
2022-11-20T19:16:44.419Z,3.46
2022-11-20T19:19:11.862Z,3.47
2022-11-20T19:21:38.537Z,3.45
2022-11-20T19:24:05.567Z,3.45
2022-11-20T19:26:35.451Z,3.45
2022-11-20T19:29:02.426Z,3.44
2022-11-20T19:31:29.126Z,3.43
2022-11-20T19:33:58.386Z,3.42
2022-11-20T19:36:30.639Z,3.42
2022-11-20T19:38:58.727Z,3.41
2022-11-20T19:41:31.510Z,3.39
2022-11-20T19:44:00.048Z,3.40
2022-11-20T19:46:27.647Z,3.42
2022-11-20T19:48:55.632Z,3.43
2022-11-20T19:51:25.006Z,3.44
2022-11-20T19:53:52.076Z,3.43
2022-11-20T19:56:19.340Z,3.45
2022-11-20T19:58:45.902Z,3.45
2022-11-20T20:01:15.761Z,3.45
2022-11-20T20:03:42.602Z,3.42
2022-11-20T20:06:12.082Z,3.39
2022-11-20T20:08:38.618Z,3.35
2022-11-20T20:11:16.876Z,3.32
2022-11-20T20:13:44.135Z,3.30
2022-11-20T20:16:16.050Z,3.25
2022-11-20T20:18:42.938Z,3.25
2022-11-20T20:21:15.405Z,3.22
2022-11-20T20:23:43.242Z,3.22
2022-11-20T20:26:11.453Z,3.21
2022-11-20T20:28:38.955Z,3.23
2022-11-20T20:31:07.888Z,3.23
2022-11-20T20:33:38.621Z,3.22
2022-11-20T20:36:06.371Z,3.23
2022-11-20T20:38:33.870Z,3.24
2022-11-20T20:41:01.098Z,3.24
2022-11-20T20:43:28.168Z,3.24
2022-11-20T20:45:55.352Z,3.21
2022-11-20T20:48:24.190Z,3.20
2022-11-20T20:50:55.471Z,3.22
2022-11-20T20:53:22.392Z,3.24
2022-11-20T20:56:00.234Z,3.25
2022-11-20T20:58:28.034Z,3.27
2022-11-20T21:00:55.136Z,3.28
2022-11-20T21:03:21.768Z,3.28
2022-11-20T21:05:56.747Z,3.30
2022-11-20T21:08:28.154Z,3.33
2022-11-20T21:11:06.819Z,3.31
2022-11-20T21:13:34.610Z,3.34
2022-11-20T21:16:01.720Z,3.35
2022-11-20T21:18:28.763Z,3.36
2022-11-20T21:21:14.408Z,3.37
2022-11-20T21:23:42.681Z,3.38
2022-11-20T21:26:09.686Z,3.40
2022-11-20T21:28:37.697Z,3.43
2022-11-20T21:31:08.217Z,3.44
2022-11-20T21:33:45.964Z,3.46
2022-11-20T21:36:17.591Z,3.47
2022-11-20T21:38:45.021Z,3.50
2022-11-20T21:41:12.944Z,3.50
2022-11-20T21:43:40.148Z,3.52
2022-11-20T21:46:09.190Z,3.55
2022-11-20T21:48:37.839Z,3.55
2022-11-20T21:51:10.350Z,3.55
2022-11-20T21:53:37.091Z,3.58
2022-11-20T21:56:04.734Z,3.60
2022-11-20T21:58:31.638Z,3.61
2022-11-20T22:00:58.239Z,3.62
2022-11-20T22:03:24.860Z,3.65
2022-11-20T22:05:58.390Z,3.63
2022-11-20T22:08:26.066Z,3.66
2022-11-20T22:11:01.139Z,3.68
2022-11-20T22:13:46.935Z,3.67
2022-11-20T22:16:14.331Z,3.70
2022-11-20T22:18:58.911Z,3.72
2022-11-20T22:21:28.562Z,3.72
2022-11-20T22:23:55.860Z,3.75
2022-11-20T22:26:39.691Z,3.75
2022-11-20T22:29:07.331Z,3.75
2022-11-20T22:31:34.173Z,3.75
2022-11-20T22:34:02.584Z,3.72
2022-11-20T22:36:31.626Z,3.74
2022-11-20T22:38:58.839Z,3.78
2022-11-20T22:41:27.483Z,3.78
2022-11-20T22:44:01.953Z,3.80
2022-11-20T22:46:31.157Z,3.79
2022-11-20T22:49:00.178Z,3.76
2022-11-20T22:51:35.454Z,3.78
2022-11-20T22:54:03.604Z,3.80
2022-11-20T22:56:30.859Z,3.81
2022-11-20T22:58:57.497Z,3.83
2022-11-20T23:01:27.078Z,3.83
2022-11-20T23:04:01.826Z,3.84
2022-11-20T23:06:29.008Z,3.85
2022-11-20T23:08:56.459Z,3.86
2022-11-20T23:11:28.519Z,3.87
2022-11-20T23:13:58.187Z,3.89
2022-11-20T23:16:26.391Z,3.88
2022-11-20T23:19:14.531Z,3.86
2022-11-20T23:21:42.514Z,3.87
2022-11-20T23:24:09.827Z,3.86
2022-11-20T23:26:39.675Z,3.86
2022-11-20T23:29:06.470Z,3.87
2022-11-20T23:31:34.843Z,3.86
2022-11-20T23:34:01.504Z,3.88
2022-11-20T23:36:28.167Z,3.88
2022-11-20T23:38:54.913Z,3.89
2022-11-20T23:41:21.591Z,3.90
2022-11-20T23:43:48.119Z,3.87
2022-11-20T23:46:16.671Z,3.87
2022-11-20T23:48:44.984Z,3.88
2022-11-20T23:51:12.105Z,3.89
2022-11-20T23:53:38.706Z,3.89
2022-11-20T23:56:06.193Z,3.89
2022-11-20T23:58:35.906Z,3.89
